Time,TemperatureF,DewpointF,PressureIn,WindDirection,WindDirectionDegrees,WindSpeedMPH,WindSpeedGustMPH,Humidity,HourlyPrecipIn,Conditions,Clouds,dailyrainin,SoftwareType,DateUTC
2013-01-01 00:00:00,22.3,19.8,24.17,North,0,0.0,-999.0,90,0.00,,,0.00,,2013-01-01 08:00:00,
2013-01-01 01:00:00,22.5,20.0,24.17,North,0,0.0,-999.0,90,0.00,,,0.00,,2013-01-01 09:00:00,
2013-01-01 02:00:00,23.6,21.1,24.18,North,0,0.0,-999.0,90,0.00,,,0.00,,2013-01-01 10:00:00,
2013-01-01 03:00:00,23.6,21.1,24.16,North,0,0.0,-999.0,90,0.00,,,0.00,,2013-01-01 11:00:00,
2013-01-01 04:00:00,24.1,21.3,24.15,North,0,0.0,-999.0,89,0.00,,,0.00,,2013-01-01 12:00:00,
2013-01-01 05:00:00,24.1,21.3,24.14,North,0,0.0,-999.0,89,0.00,,,0.00,,2013-01-01 13:00:00,
2013-01-01 06:00:00,24.5,21.7,24.16,North,0,0.0,-999.0,89,0.00,,,0.00,,2013-01-01 14:00:00,
2013-01-01 07:07:00,23.9,20.9,24.16,North,0,0.0,-999.0,88,0.00,,,0.00,,2013-01-01 15:07:00,
2013-01-01 08:00:00,25.4,22.3,24.19,North,0,0.0,-999.0,88,0.00,,,0.00,,2013-01-01 16:00:00,
2013-01-01 09:07:00,27.7,23.5,24.19,North,0,0.0,-999.0,84,0.00,,,0.00,,2013-01-01 17:07:00,
2013-01-01 10:00:00,29.9,23.2,24.21,North,0,0.0,-999.0,76,0.00,,,0.00,,2013-01-01 18:00:00,
2013-01-01 11:07:00,32.8,23.3,24.21,North,0,0.0,-999.0,68,0.00,,,0.00,,2013-01-01 19:07:00,
2013-01-01 12:00:00,34.4,22.7,24.17,North,0,0.0,-999.0,62,0.00,,,0.00,,2013-01-01 20:00:00,
2013-01-01 13:06:00,34.0,22.7,24.17,North,0,0.0,-999.0,63,0.00,,,0.00,,2013-01-01 21:06:00,
2013-01-01 14:00:00,32.0,22.0,24.14,North,0,0.0,-999.0,66,0.00,,,0.00,,2013-01-01 22:00:00,
2013-01-01 15:06:00,31.5,20.7,24.14,North,0,0.0,-999.0,64,0.00,,,0.00,,2013-01-01 23:06:00,
2013-01-01 16:00:00,29.0,20.1,24.15,North,0,0.0,-999.0,69,0.00,,,0.00,,2013-01-02 00:00:00,
2013-01-01 17:06:00,26.8,18.4,24.15,North,0,0.0,-999.0,70,0.00,,,0.00,,2013-01-02 01:06:00,
2013-01-01 18:00:00,25.2,17.1,24.17,North,0,0.0,-999.0,71,0.00,,,0.00,,2013-01-02 02:00:00,
2013-01-01 19:00:00,24.1,15.8,24.15,North,0,0.0,-999.0,70,0.00,,,0.00,,2013-01-02 03:00:00,
2013-01-01 20:00:00,23.8,15.0,24.18,North,0,0.0,-999.0,69,0.00,,,0.00,,2013-01-02 04:00:00,
2013-01-01 21:00:00,23.4,15.1,24.19,North,0,0.0,-999.0,70,0.00,,,0.00,,2013-01-02 05:00:00,
2013-01-01 22:00:00,23.0,15.0,24.20,North,0,0.0,-999.0,71,0.00,,,0.00,,2013-01-02 06:00:00,
2013-01-01 23:00:00,23.4,15.1,24.20,North,0,0.0,-999.0,70,0.00,,,0.00,,2013-01-02 07:00:00,